createdAt,value
2023-03-21T00:04:44.756Z,1007.1
2023-03-21T00:09:33.516Z,1007.1
2023-03-21T00:14:33.153Z,1007.1
2023-03-21T00:19:32.759Z,1007.1
2023-03-21T00:24:32.873Z,1007
2023-03-21T00:29:32.399Z,1007
2023-03-21T00:35:02.471Z,1007
2023-03-21T00:39:29.514Z,1006.9
2023-03-21T00:44:29.340Z,1006.9
2023-03-21T00:49:28.838Z,1006.8
2023-03-21T00:54:28.615Z,1006.8
2023-03-21T00:59:13.412Z,1006.7
2023-03-21T01:04:12.982Z,1006.7
2023-03-21T01:09:14.735Z,1006.7
2023-03-21T01:14:35.930Z,1006.7
2023-03-21T01:19:22.333Z,1006.6
2023-03-21T01:24:11.013Z,1006.6
2023-03-21T01:29:11.064Z,1006.6
2023-03-21T01:34:11.797Z,1006.5
2023-03-21T01:39:09.503Z,1006.5
2023-03-21T01:44:09.278Z,1006.5
2023-03-21T01:49:18.951Z,1006.5
2023-03-21T01:54:19.587Z,1006.4
2023-03-21T01:59:16.888Z,1006.4
2023-03-21T02:04:16.239Z,1006.3
2023-03-21T02:09:17.278Z,1006.3
2023-03-21T02:14:37.291Z,1006.2
2023-03-21T02:19:17.616Z,1006.2
2023-03-21T02:24:14.151Z,1006.2
2023-03-21T02:29:13.305Z,1006.2
2023-03-21T02:34:13.259Z,1006.2
2023-03-21T02:39:55.779Z,1006.1
2023-03-21T02:44:02.449Z,1006.2
2023-03-21T02:49:12.093Z,1006.2
2023-03-21T02:54:41.998Z,1006.1
2023-03-21T02:59:01.994Z,1006.1
2023-03-21T03:03:58.707Z,1006
2023-03-21T03:09:13.448Z,1006
2023-03-21T03:13:58.662Z,1005.9
2023-03-21T03:19:00.156Z,1005.9
2023-03-21T03:23:55.913Z,1006
2023-03-21T03:28:56.120Z,1006.1
2023-03-21T03:33:55.374Z,1006.1
2023-03-21T03:38:55.421Z,1006.2
2023-03-21T03:43:53.081Z,1006.2
2023-03-21T03:48:52.726Z,1006.1
2023-03-21T03:53:52.459Z,1006.1
2023-03-21T03:59:05.830Z,1006.1
2023-03-21T04:00:54.214Z,1006.1
2023-03-21T04:05:12.971Z,1006.2
2023-03-21T04:10:13.810Z,1006.2
2023-03-21T04:15:21.561Z,1006.2
2023-03-21T04:20:37.145Z,1006.1
2023-03-21T04:25:11.384Z,1006.1
2023-03-21T04:30:10.810Z,1006
2023-03-21T04:35:10.147Z,1006
2023-03-21T04:40:10.091Z,1006
2023-03-21T04:45:17.883Z,1006.1
2023-03-21T04:50:18.028Z,1006
2023-03-21T04:55:19.840Z,1006
2023-03-21T04:59:33.646Z,1006
2023-03-21T05:04:33.840Z,1005.9
2023-03-21T05:09:32.996Z,1005.9
2023-03-21T05:14:33.138Z,1005.9
2023-03-21T05:19:31.508Z,1005.9
2023-03-21T05:24:30.948Z,1006
2023-03-21T05:29:30.759Z,1005.9
2023-03-21T05:34:31.653Z,1005.8
2023-03-21T05:39:28.044Z,1005.9
2023-03-21T05:44:28.174Z,1005.9
2023-03-21T05:49:27.660Z,1006
2023-03-21T05:54:27.539Z,1006
2023-03-21T05:59:12.892Z,1006
2023-03-21T06:04:13.345Z,1006.1
2023-03-21T06:09:12.006Z,1006.1
2023-03-21T06:14:11.662Z,1006.1
2023-03-21T06:19:11.252Z,1006.1
2023-03-21T06:24:11.585Z,1006.1
2023-03-21T06:29:10.997Z,1006.2
2023-03-21T06:34:10.951Z,1006.1
2023-03-21T06:39:19.004Z,1006.1
2023-03-21T06:44:18.710Z,1006.1
2023-03-21T06:49:18.910Z,1006.2
2023-03-21T06:54:18.039Z,1006.1
2023-03-21T06:59:18.438Z,1006
2023-03-21T07:04:18.514Z,1006
2023-03-21T07:09:19.371Z,1006
2023-03-21T07:14:16.994Z,1006
2023-03-21T07:19:16.733Z,1005.9
2023-03-21T07:24:18.233Z,1005.8
2023-03-21T07:29:15.435Z,1005.8
2023-03-21T07:34:15.370Z,1005.6
2023-03-21T07:39:15.963Z,1005.4
2023-03-21T07:44:14.389Z,1005.4
2023-03-21T07:49:14.031Z,1005.5
2023-03-21T07:54:14.504Z,1005.5
2023-03-21T07:59:13.463Z,1005.6
2023-03-21T08:00:59.490Z,1005.6
2023-03-21T08:05:34.160Z,1005.5
2023-03-21T08:10:35.817Z,1005.5
2023-03-21T08:15:32.395Z,1005.4
2023-03-21T08:20:32.343Z,1005.5
2023-03-21T08:25:31.886Z,1005.5
2023-03-21T08:30:32.253Z,1005.4
2023-03-21T08:35:29.644Z,1005.5
2023-03-21T08:40:29.111Z,1005.5
2023-03-21T08:45:28.484Z,1005.5
2023-03-21T08:50:28.001Z,1005.5
2023-03-21T08:55:27.410Z,1005.5
2023-03-21T08:59:47.192Z,1005.5
2023-03-21T09:04:47.634Z,1005.5
2023-03-21T09:09:50.867Z,1005.5
2023-03-21T09:14:50.615Z,1005.6
2023-03-21T09:19:44.494Z,1005.6
2023-03-21T09:24:44.556Z,1005.6
2023-03-21T09:29:44.728Z,1005.6
2023-03-21T09:34:43.597Z,1005.6
2023-03-21T09:39:42.498Z,1005.7
2023-03-21T09:44:42.272Z,1005.7
2023-03-21T09:50:26.025Z,1005.7
2023-03-21T09:54:43.839Z,1005.7
2023-03-21T09:59:31.208Z,1005.7
2023-03-21T10:04:29.911Z,1005.7
2023-03-21T10:09:29.373Z,1005.7
2023-03-21T10:14:29.021Z,1005.7
2023-03-21T10:19:26.585Z,1005.7
2023-03-21T10:24:26.291Z,1005.6
2023-03-21T10:29:25.732Z,1005.5
2023-03-21T10:34:25.056Z,1005.5
2023-03-21T10:39:24.406Z,1005.5
2023-03-21T10:44:23.991Z,1005.4
2023-03-21T10:49:24.344Z,1005.3
2023-03-21T10:54:23.599Z,1005.3
2023-03-21T10:59:11.566Z,1005.2
2023-03-21T11:04:18.202Z,1005.2
2023-03-21T11:09:17.946Z,1005.1
2023-03-21T11:14:18.524Z,1005.1
2023-03-21T11:19:17.427Z,1005
2023-03-21T11:24:18.510Z,1005
2023-03-21T11:29:19.402Z,1004.7
2023-03-21T11:34:15.717Z,1004.5
2023-03-21T11:39:15.458Z,1004.4
2023-03-21T11:44:15.981Z,1004.5
2023-03-21T11:49:13.814Z,1004.5
2023-03-21T11:54:13.157Z,1004.4
2023-03-21T11:59:13.673Z,1004.2
2023-03-21T12:04:09.173Z,1004.1
2023-03-21T12:09:01.616Z,1004.1
2023-03-21T12:14:01.529Z,1004
2023-03-21T12:19:01.326Z,1003.7
2023-03-21T12:24:02.398Z,1003.7
2023-03-21T12:28:58.698Z,1003.8
2023-03-21T12:33:58.858Z,1003.5
2023-03-21T12:38:58.402Z,1003.7
2023-03-21T12:43:58.195Z,1003.7
2023-03-21T12:48:56.195Z,1003.7
2023-03-21T12:53:56.032Z,1003.7
2023-03-21T12:58:56.186Z,1003.5
2023-03-21T13:00:43.427Z,1003.4
2023-03-21T13:05:16.151Z,1003.4
2023-03-21T13:10:16.299Z,1003.4
2023-03-21T13:15:23.924Z,1003.2
2023-03-21T13:20:15.924Z,1003.2
2023-03-21T13:25:13.355Z,1003.2
2023-03-21T13:30:13.397Z,1003.2
2023-03-21T13:35:12.725Z,1003.2
2023-03-21T13:40:12.347Z,1003.2
2023-03-21T13:45:12.132Z,1003.2
2023-03-21T13:50:11.061Z,1003.2
2023-03-21T13:55:11.061Z,1003.1
2023-03-21T13:59:16.203Z,1003.1
2023-03-21T14:04:17.372Z,1003
2023-03-21T14:09:13.965Z,1003
2023-03-21T14:14:14.084Z,1002.9
2023-03-21T14:19:16.086Z,1002.9
2023-03-21T14:24:13.501Z,1002.8
2023-03-21T14:29:24.915Z,1002.8
2023-03-21T14:34:10.543Z,1002.9
2023-03-21T14:39:09.489Z,1002.8
2023-03-21T14:44:20.843Z,1002.8
2023-03-21T14:49:17.880Z,1002.8
2023-03-21T14:54:17.869Z,1002.9
2023-03-21T14:59:19.030Z,1002.9
2023-03-21T15:04:16.181Z,1002.8
2023-03-21T15:09:15.717Z,1002.8
2023-03-21T15:14:15.971Z,1002.8
2023-03-21T15:19:14.007Z,1002.6
2023-03-21T15:24:13.595Z,1002.7
2023-03-21T15:29:13.632Z,1002.6
2023-03-21T15:34:02.311Z,1002.5
2023-03-21T15:39:01.879Z,1002.5
2023-03-21T15:44:02.260Z,1002.4
2023-03-21T15:49:01.710Z,1002.3
2023-03-21T15:54:01.424Z,1002.3
2023-03-21T15:58:58.017Z,1002.4
2023-03-21T16:03:58.572Z,1002.3
2023-03-21T16:08:57.754Z,1002.2
2023-03-21T16:13:56.852Z,1002.1
2023-03-21T16:18:56.396Z,1002.1
2023-03-21T16:23:56.748Z,1002.2
2023-03-21T16:28:55.816Z,1002.3
2023-03-21T16:33:57.101Z,1002.2
2023-03-21T16:38:53.931Z,1002.1
2023-03-21T16:43:53.516Z,1002.3
2023-03-21T16:48:53.388Z,1002.2
2023-03-21T16:53:52.892Z,1002.1
2023-03-21T16:58:51.097Z,1002.1
2023-03-21T17:00:39.061Z,1002.1
2023-03-21T17:05:10.999Z,1002.2
2023-03-21T17:10:10.668Z,1002.4
2023-03-21T17:15:09.626Z,1002.4
2023-03-21T17:20:09.674Z,1002.3
2023-03-21T17:25:18.874Z,1002.3
2023-03-21T17:30:19.444Z,1002.2
2023-03-21T17:35:16.969Z,1002.2
2023-03-21T17:40:16.547Z,1002.3
2023-03-21T17:45:16.562Z,1002.4
2023-03-21T17:50:15.184Z,1002.5
2023-03-21T17:55:14.800Z,1002.4
2023-03-21T17:59:34.773Z,1002.4
2023-03-21T18:04:34.159Z,1002.5
2023-03-21T18:09:33.839Z,1002.5
2023-03-21T18:14:42.534Z,1002.5
2023-03-21T18:19:33.763Z,1002.4
2023-03-21T18:24:34.625Z,1002.4
2023-03-21T18:31:12.349Z,1002.5
2023-03-21T18:34:31.418Z,1002.7
2023-03-21T18:39:31.035Z,1002.7
2023-03-21T18:44:41.956Z,1002.7
2023-03-21T18:50:24.531Z,1002.8
2023-03-21T18:54:27.873Z,1002.8
2023-03-21T18:59:13.627Z,1002.8
2023-03-21T19:04:40.872Z,1002.9
2023-03-21T19:09:14.279Z,1003
2023-03-21T19:14:12.166Z,1003
2023-03-21T19:19:17.753Z,1003.1
2023-03-21T19:24:47.156Z,1003
2023-03-21T19:29:09.744Z,1002.9
2023-03-21T19:34:09.753Z,1003
2023-03-21T19:39:20.018Z,1002.8
2023-03-21T19:44:20.551Z,1002.8
2023-03-21T19:49:18.225Z,1002.8
2023-03-21T19:54:17.492Z,1002.9
2023-03-21T19:59:17.396Z,1003
2023-03-21T20:04:15.646Z,1002.9
2023-03-21T20:10:03.889Z,1002.9
2023-03-21T20:14:15.219Z,1003
2023-03-21T20:19:14.225Z,1003
2023-03-21T20:24:14.661Z,1003
2023-03-21T20:30:18.103Z,1003.1
2023-03-21T20:34:14.644Z,1003.2
2023-03-21T20:39:02.170Z,1003.3
2023-03-21T20:45:00.700Z,1003.2
2023-03-21T20:49:01.010Z,1003.2
2023-03-21T20:54:02.230Z,1003
2023-03-21T20:59:32.475Z,1003
2023-03-21T21:05:48.477Z,1003.1
2023-03-21T21:08:58.548Z,1003.2
2023-03-21T21:13:56.541Z,1003.3
2023-03-21T21:18:55.638Z,1003.3
2023-03-21T21:23:55.820Z,1003.3
2023-03-21T21:28:54.670Z,1003.2
2023-03-21T21:33:54.583Z,1003.2
2023-03-21T21:38:54.910Z,1003.3
2023-03-21T21:43:54.242Z,1003.3
2023-03-21T21:48:53.031Z,1003.4
2023-03-21T21:53:51.968Z,1003.4
2023-03-21T21:58:50.719Z,1003.3
2023-03-21T22:00:37.385Z,1003.4
2023-03-21T22:05:12.167Z,1003.3
2023-03-21T22:10:11.709Z,1003.3
2023-03-21T22:15:11.877Z,1003.3
2023-03-21T22:20:25.812Z,1003.3
2023-03-21T22:25:12.587Z,1003.3
2023-03-21T22:30:19.406Z,1003.2
2023-03-21T22:35:19.015Z,1003.2
2023-03-21T22:40:20.000Z,1003.3
2023-03-21T22:45:17.074Z,1003.3
2023-03-21T22:50:17.105Z,1003.3
2023-03-21T22:55:18.779Z,1003.3
2023-03-21T22:59:29.354Z,1003.2
2023-03-21T23:04:29.492Z,1003.2
2023-03-21T23:09:28.597Z,1003.2
2023-03-21T23:14:29.788Z,1003.2
2023-03-21T23:19:26.115Z,1003.1
2023-03-21T23:24:25.942Z,1003.1
2023-03-21T23:29:25.143Z,1003.1
2023-03-21T23:34:24.987Z,1003.1
2023-03-21T23:39:24.271Z,1003.2
2023-03-21T23:44:24.072Z,1003.2
2023-03-21T23:49:24.588Z,1003.1
2023-03-21T23:54:24.053Z,1003.1
2023-03-21T23:59:11.423Z,1003
